Terminal Aerodrome Forecast
Issued by NWS Twin Cities, MN

Home | Current Version | Previous Version | Graphics & Text | Print | Product List | Glossary On
Versions: 1 2 3 4 5 6 7 8 9 10 11 12 13 14 15 16 17 18 19 20 21 22 23 24 25 26 27 28
000
FTUS43 KMPX 281120
TAFMSP
TAF
KMSP 281120Z 2812/2918 14015G22KT 5SM -TSRA BR OVC035CB
      TEMPO 2813/2816 2SM -TSRA BR OVC025CB
     FM281600 15016G24KT P6SM -SHRA SCT025 OVC035
     FM281900 18017G25KT P6SM VCSH BKN035 OVC050 PROB30 2821/2824
      5SM -TSRA BKN035CB
     FM290100 25010G16KT P6SM BKN060
     FM290600 26010KT P6SM SCT250=

USA.gov is the U.S. government's official web portal to all federal, state and local government web resources and services.